Airfield :
LOGIN :

Register | Disclaimer

   EN    FR    IT 

 










Legend :    VFR   Marginal VFR   IFR   Intensive IFR   Very Intensive IFR
Visi :
Ceiling :
>= 8 km
>= 3000ft
5 to 8 km
1000 to 3000 ft
1500m to 5 km
500 to 1000 ft
800 to 1500m
200 to 500 ft
< 800m
< 200 ft
Symbols :   Thunderstorms  Fog  Heavy snow  Heavy precipitations  Wind > 20 kt
SIGMETs :     Misc.  Thunderstorms  Icing  Turbulence  Mountain Waves  Volcanic Ashes







- Airport Elevation : 195 ft
- Download approach charts


LFMY - Salon de Provence

CURRENT METAR :
  • 200200Z AUTO 34011KT CAVOK 13/07 Q1018

EXPIRED METARs :
  • 200130Z AUTO 35018KT CAVOK 13/07 Q1018
  • 200100Z AUTO 33016KT 290V360 CAVOK 13/07 Q1018
  • 200030Z AUTO 32017KT 290V350 CAVOK 13/07 Q1018
  • 200000Z AUTO 33015KT 290V350 CAVOK 13/07 Q1018
  • 192330Z AUTO 32014KT 280V350 CAVOK 14/07 Q1018

TAF TAF LFMY
Valid from the 19 at 15:00 until the 20 at 15:00 UTC


191400Z 1915/2015 33018G28KT CAVOK
TEMPO 1915/2005 33028G38KT
BECMG 2012/2015 33018KT
No reported NOTAMs for that airfield.



MET'MAP, your aeronautical weather chart ! - Copyright ORBIFLY December 2007 - Disclaimer

ORBIFLY MET'MAP TEAM :

Programming & Development : Alexandra Zaïnal
Concept & Development : Baudouin d'Aumeries
Co-Development & Prog : Marc-Olivier Méhu
Technical & hardware support : Manuel Goepfert

Contact : metmap@orbifly.com




SOURCES & CREDITS :

   NOAA